createdAt,value
2023-02-16T00:00:04.388Z,1017.82
2023-02-16T00:01:05.025Z,1017.77
2023-02-16T00:02:04.650Z,1017.76
2023-02-16T00:03:04.698Z,1017.79
2023-02-16T00:04:04.768Z,1017.79
2023-02-16T00:05:04.841Z,1017.77
2023-02-16T00:06:04.930Z,1017.81
2023-02-16T00:07:05.035Z,1017.83
2023-02-16T00:08:05.129Z,1017.83
2023-02-16T00:09:05.207Z,1017.84
2023-02-16T00:10:05.317Z,1017.85
2023-02-16T00:11:05.679Z,1017.85
2023-02-16T00:12:05.551Z,1017.83
2023-02-16T00:13:05.651Z,1017.85
2023-02-16T00:14:05.767Z,1017.87
2023-02-16T00:15:05.859Z,1017.89
2023-02-16T00:16:06.014Z,1017.87
2023-02-16T00:17:06.114Z,1017.87
2023-02-16T00:18:06.214Z,1017.86
2023-02-16T00:19:06.298Z,1017.83
2023-02-16T00:20:06.393Z,1017.83
2023-02-16T00:21:06.477Z,1017.82
2023-02-16T00:22:06.585Z,1017.83
2023-02-16T00:23:06.663Z,1017.80
2023-02-16T00:24:06.750Z,1017.88
2023-02-16T00:25:06.844Z,1017.89
2023-02-16T00:26:06.931Z,1017.88
2023-02-16T00:27:07.038Z,1017.86
2023-02-16T00:28:07.123Z,1017.88
2023-02-16T00:29:07.218Z,1017.87
2023-02-16T00:30:07.333Z,1017.84
2023-02-16T00:31:07.848Z,1017.85
2023-02-16T00:32:07.727Z,1017.85
2023-02-16T00:33:07.622Z,1017.84
2023-02-16T00:34:07.724Z,1017.85
2023-02-16T00:35:07.813Z,1017.84
2023-02-16T00:36:07.913Z,1017.82
2023-02-16T00:37:08.045Z,1017.80
2023-02-16T00:38:08.143Z,1017.81
2023-02-16T00:39:08.228Z,1017.80
2023-02-16T00:40:08.320Z,1017.86
2023-02-16T00:41:08.409Z,1017.84
2023-02-16T00:42:08.542Z,1017.85
2023-02-16T00:43:08.632Z,1017.85
2023-02-16T00:44:08.731Z,1017.83
2023-02-16T00:45:08.827Z,1017.83
2023-02-16T00:46:08.945Z,1017.82
2023-02-16T00:47:09.046Z,1017.81
2023-02-16T00:48:09.146Z,1017.83
2023-02-16T00:49:09.236Z,1017.84
2023-02-16T00:50:09.335Z,1017.85
2023-02-16T00:51:24.888Z,1017.87
2023-02-16T00:52:10.608Z,1017.83
2023-02-16T00:53:09.708Z,1017.82
2023-02-16T00:54:09.849Z,1017.80
2023-02-16T00:55:09.971Z,1017.83
2023-02-16T00:56:10.065Z,1017.85
2023-02-16T00:57:10.183Z,1017.84
2023-02-16T00:58:10.281Z,1017.86
2023-02-16T00:59:10.356Z,1017.85
2023-02-16T01:00:10.479Z,1017.86
2023-02-16T01:01:10.616Z,1017.87
2023-02-16T01:02:10.713Z,1017.85
2023-02-16T01:03:10.809Z,1017.83
2023-02-16T01:04:10.961Z,1017.83
2023-02-16T01:05:11.024Z,1017.79
2023-02-16T01:06:11.126Z,1017.76
2023-02-16T01:07:11.225Z,1017.79
2023-02-16T01:08:11.347Z,1017.77
2023-02-16T01:09:11.426Z,1017.79
2023-02-16T01:10:11.532Z,1017.76
2023-02-16T01:11:11.632Z,1017.79
2023-02-16T01:12:11.741Z,1017.78
2023-02-16T01:13:11.859Z,1017.81
2023-02-16T01:14:11.963Z,1017.82
2023-02-16T01:15:12.067Z,1017.76
2023-02-16T01:16:12.231Z,1017.77
2023-02-16T01:17:12.235Z,1017.73
2023-02-16T01:18:12.359Z,1017.70
2023-02-16T01:19:12.471Z,1017.70
2023-02-16T01:20:12.553Z,1017.68
2023-02-16T01:21:12.654Z,1017.67
2023-02-16T01:22:12.746Z,1017.67
2023-02-16T01:23:12.872Z,1017.67
2023-02-16T01:24:12.979Z,1017.67
2023-02-16T01:25:13.108Z,1017.69
2023-02-16T01:26:13.185Z,1017.68
2023-02-16T01:27:13.294Z,1017.66
2023-02-16T01:28:13.426Z,1017.69
2023-02-16T01:29:13.528Z,1017.68
2023-02-16T01:30:13.680Z,1017.68
2023-02-16T01:31:13.853Z,1017.72
2023-02-16T01:32:13.984Z,1017.71
2023-02-16T01:33:13.984Z,1017.74
2023-02-16T01:34:14.107Z,1017.70
2023-02-16T01:35:14.196Z,1017.68
2023-02-16T01:36:14.314Z,1017.66
2023-02-16T01:37:14.421Z,1017.66
2023-02-16T01:38:15.158Z,1017.66
2023-02-16T01:39:14.601Z,1017.65
2023-02-16T01:40:14.695Z,1017.65
2023-02-16T01:41:14.826Z,1017.65
2023-02-16T01:42:14.925Z,1017.63
2023-02-16T01:43:15.055Z,1017.64
2023-02-16T01:44:15.174Z,1017.63
2023-02-16T01:45:15.264Z,1017.62
2023-02-16T01:46:15.421Z,1017.61
2023-02-16T01:47:15.431Z,1017.60
2023-02-16T01:48:15.562Z,1017.66
2023-02-16T01:49:15.660Z,1017.64
2023-02-16T01:50:15.775Z,1017.62
2023-02-16T01:51:15.881Z,1017.63
2023-02-16T01:52:15.997Z,1017.61
2023-02-16T01:53:16.110Z,1017.62
2023-02-16T01:54:16.229Z,1017.58
2023-02-16T01:55:16.359Z,1017.58
2023-02-16T01:56:16.446Z,1017.60
2023-02-16T01:57:16.547Z,1017.60
2023-02-16T01:58:16.683Z,1017.59
2023-02-16T01:59:16.796Z,1017.61
2023-02-16T02:00:16.915Z,1017.57
2023-02-16T02:01:17.037Z,1017.59
2023-02-16T02:02:17.118Z,1017.60
2023-02-16T02:03:17.264Z,1017.57
2023-02-16T02:04:17.445Z,1017.55
2023-02-16T02:05:17.459Z,1017.58
2023-02-16T02:06:17.593Z,1017.53
2023-02-16T02:07:17.711Z,1017.55
2023-02-16T02:08:17.838Z,1017.55
2023-02-16T02:09:17.945Z,1017.50
2023-02-16T02:10:18.061Z,1017.50
2023-02-16T02:11:18.172Z,1017.47
2023-02-16T02:12:18.290Z,1017.43
2023-02-16T02:13:18.414Z,1017.46
2023-02-16T02:14:18.554Z,1017.43
2023-02-16T02:15:18.661Z,1017.42
2023-02-16T02:16:18.791Z,1017.42
2023-02-16T02:17:18.884Z,1017.48
2023-02-16T02:18:19.020Z,1017.41
2023-02-16T02:19:19.134Z,1017.41
2023-02-16T02:20:19.194Z,1017.42
2023-02-16T02:21:19.299Z,1017.39
2023-02-16T02:22:19.423Z,1017.39
2023-02-16T02:23:19.547Z,1017.36
2023-02-16T02:24:19.670Z,1017.39
2023-02-16T02:25:19.777Z,1017.44
2023-02-16T02:26:19.917Z,1017.44
2023-02-16T02:27:20.046Z,1017.47
2023-02-16T02:28:20.167Z,1017.46
2023-02-16T02:29:20.274Z,1017.41
2023-02-16T02:30:20.490Z,1017.43
2023-02-16T02:31:20.705Z,1017.42
2023-02-16T02:32:20.684Z,1017.44
2023-02-16T02:33:20.708Z,1017.39
2023-02-16T02:34:20.834Z,1017.39
2023-02-16T02:35:20.950Z,1017.38
2023-02-16T02:36:21.081Z,1017.38
2023-02-16T02:37:21.257Z,1017.38
2023-02-16T02:38:21.369Z,1017.37
2023-02-16T02:39:21.502Z,1017.36
2023-02-16T02:40:21.607Z,1017.38
2023-02-16T02:41:21.715Z,1017.35
2023-02-16T02:42:21.850Z,1017.28
2023-02-16T02:43:21.967Z,1017.29
2023-02-16T02:44:22.080Z,1017.27
2023-02-16T02:45:22.201Z,1017.29
2023-02-16T02:46:22.352Z,1017.29
2023-02-16T02:47:22.458Z,1017.26
2023-02-16T02:48:22.596Z,1017.28
2023-02-16T02:49:29.674Z,1017.29
2023-02-16T02:50:22.762Z,1017.25
2023-02-16T02:51:22.876Z,1017.26
2023-02-16T02:52:23.032Z,1017.22
2023-02-16T02:53:23.189Z,1017.22
2023-02-16T02:54:23.305Z,1017.21
2023-02-16T02:55:23.416Z,1017.20
2023-02-16T02:56:23.549Z,1017.18
2023-02-16T02:57:23.653Z,1017.20
2023-02-16T02:58:23.810Z,1017.21
2023-02-16T02:59:24.109Z,1017.20
2023-02-16T03:00:24.018Z,1017.20
2023-02-16T03:01:24.230Z,1017.20
2023-02-16T03:02:24.240Z,1017.17
2023-02-16T03:03:24.360Z,1017.18
2023-02-16T03:04:24.487Z,1017.18
2023-02-16T03:05:24.609Z,1017.19
2023-02-16T03:06:24.733Z,1017.18
2023-02-16T03:07:24.853Z,1017.19
2023-02-16T03:08:24.993Z,1017.20
2023-02-16T03:09:25.285Z,1017.17
2023-02-16T03:10:25.281Z,1017.21
2023-02-16T03:11:25.410Z,1017.21
2023-02-16T03:12:25.516Z,1017.18
2023-02-16T03:13:25.687Z,1017.12
2023-02-16T03:14:25.817Z,1017.14
2023-02-16T03:15:25.964Z,1017.13
2023-02-16T03:16:26.133Z,1017.13
2023-02-16T03:17:26.237Z,1017.14
2023-02-16T03:18:26.381Z,1017.15
2023-02-16T03:19:26.538Z,1017.17
2023-02-16T03:20:26.671Z,1017.11
2023-02-16T03:21:26.802Z,1017.14
2023-02-16T03:22:26.905Z,1017.10
2023-02-16T03:23:27.037Z,1017.11
2023-02-16T03:24:27.156Z,1017.07
2023-02-16T03:25:27.273Z,1017.12
2023-02-16T03:26:27.391Z,1017.15
2023-02-16T03:27:27.542Z,1017.17
2023-02-16T03:28:27.757Z,1017.18
2023-02-16T03:29:27.769Z,1017.17
2023-02-16T03:30:28.033Z,1017.16
2023-02-16T03:31:28.105Z,1017.16
2023-02-16T03:32:28.091Z,1017.19
2023-02-16T03:33:28.211Z,1017.13
2023-02-16T03:34:28.322Z,1017.17
2023-02-16T03:35:28.450Z,1017.18
2023-02-16T03:36:28.558Z,1017.19
2023-02-16T03:37:28.684Z,1017.19
2023-02-16T03:38:28.803Z,1017.21
2023-02-16T03:39:28.935Z,1017.19
2023-02-16T03:40:29.054Z,1017.23
2023-02-16T03:41:29.178Z,1017.23
2023-02-16T03:42:29.311Z,1017.15
2023-02-16T03:43:29.465Z,1017.15
2023-02-16T03:44:29.578Z,1017.16
2023-02-16T03:45:29.743Z,1017.16
2023-02-16T03:46:29.860Z,1017.14
2023-02-16T03:47:29.982Z,1017.13
2023-02-16T03:48:30.120Z,1017.15
2023-02-16T03:49:30.239Z,1017.17
2023-02-16T03:50:30.353Z,1017.18
2023-02-16T03:51:30.474Z,1017.14
2023-02-16T03:52:30.585Z,1017.14
2023-02-16T03:53:30.740Z,1017.10
2023-02-16T03:54:30.852Z,1017.09
2023-02-16T03:55:30.968Z,1017.12
2023-02-16T03:56:31.096Z,1017.11
2023-02-16T03:57:31.362Z,1017.11
2023-02-16T03:58:31.355Z,1017.11
2023-02-16T03:59:31.480Z,1017.09
2023-02-16T04:00:31.593Z,1017.13
2023-02-16T04:01:31.728Z,1017.14
2023-02-16T04:02:31.952Z,1017.13
2023-02-16T04:03:32.004Z,1017.12
2023-02-16T04:04:32.180Z,1017.09
2023-02-16T04:05:32.299Z,1017.07
2023-02-16T04:06:32.409Z,1017.13
2023-02-16T04:07:32.522Z,1017.11
2023-02-16T04:08:32.661Z,1017.13
2023-02-16T04:09:32.791Z,1017.15
2023-02-16T04:10:32.906Z,1017.19
2023-02-16T04:11:33.045Z,1017.19
2023-02-16T04:12:33.149Z,1017.17
2023-02-16T04:13:33.294Z,1017.18
2023-02-16T04:14:33.424Z,1017.18
2023-02-16T04:15:33.561Z,1017.19
2023-02-16T04:16:33.753Z,1017.18
2023-02-16T04:17:33.910Z,1017.15
2023-02-16T04:18:34.060Z,1017.16
2023-02-16T04:19:34.178Z,1017.15
2023-02-16T04:20:34.289Z,1017.19
2023-02-16T04:21:34.432Z,1017.17
2023-02-16T04:22:34.550Z,1017.16
2023-02-16T04:23:34.685Z,1017.22
2023-02-16T04:24:34.803Z,1017.18
2023-02-16T04:25:34.919Z,1017.17
2023-02-16T04:26:35.052Z,1017.21
2023-02-16T04:27:35.176Z,1017.13
2023-02-16T04:28:35.315Z,1017.13
2023-02-16T04:29:35.460Z,1017.11
2023-02-16T04:30:35.720Z,1017.12
2023-02-16T04:31:35.786Z,1017.17
2023-02-16T04:32:35.732Z,1017.09
2023-02-16T04:33:35.910Z,1017.17
2023-02-16T04:34:36.042Z,1017.09
2023-02-16T04:35:36.191Z,1017.15
2023-02-16T04:36:36.338Z,1017.18
2023-02-16T04:37:36.461Z,1017.19
2023-02-16T04:38:36.603Z,1017.22
2023-02-16T04:39:36.729Z,1017.20
2023-02-16T04:40:36.842Z,1017.19
2023-02-16T04:41:36.969Z,1017.23
2023-02-16T04:42:37.088Z,1017.21
2023-02-16T04:43:37.236Z,1017.19
2023-02-16T04:44:37.362Z,1017.21
2023-02-16T04:45:37.492Z,1017.15
2023-02-16T04:46:37.616Z,1017.17
2023-02-16T04:47:37.745Z,1017.09
2023-02-16T04:48:37.884Z,1017.09
2023-02-16T04:49:38.005Z,1017.05
2023-02-16T04:50:38.194Z,1017.09
2023-02-16T04:51:38.323Z,1017.10
2023-02-16T04:52:38.358Z,1017.08
2023-02-16T04:53:38.518Z,1017.12
2023-02-16T04:54:38.630Z,1017.08
2023-02-16T04:55:38.755Z,1017.07
2023-02-16T04:56:38.876Z,1017.08
2023-02-16T04:57:39.017Z,1017.04
2023-02-16T04:58:39.151Z,1017.03
2023-02-16T04:59:39.282Z,1016.98
2023-02-16T05:00:39.426Z,1017.07
2023-02-16T05:01:39.628Z,1017.05
2023-02-16T05:02:39.670Z,1017.07
2023-02-16T05:03:39.774Z,1017.10
2023-02-16T05:04:39.875Z,1017.10
2023-02-16T05:05:39.934Z,1017.11
2023-02-16T05:06:40.050Z,1017.09
2023-02-16T05:07:40.199Z,1017.09
2023-02-16T05:08:40.337Z,1017.08
2023-02-16T05:09:40.476Z,1017.06
2023-02-16T05:10:40.613Z,1017.09
2023-02-16T05:11:40.746Z,1017.13
2023-02-16T05:12:40.900Z,1017.18
2023-02-16T05:13:42.678Z,1017.17
2023-02-16T05:14:41.149Z,1017.15
2023-02-16T05:15:41.321Z,1017.14
2023-02-16T05:16:41.457Z,1017.17
2023-02-16T05:17:41.659Z,1017.15
2023-02-16T05:18:41.806Z,1017.12
2023-02-16T05:19:41.970Z,1017.17
2023-02-16T05:20:42.103Z,1017.18
2023-02-16T05:21:42.246Z,1017.21
2023-02-16T05:22:42.379Z,1017.27
2023-02-16T05:23:42.536Z,1017.24
2023-02-16T05:24:42.678Z,1017.22
2023-02-16T05:25:42.899Z,1017.25
2023-02-16T05:26:42.950Z,1017.25
2023-02-16T05:27:43.153Z,1017.30
2023-02-16T05:28:43.233Z,1017.28
2023-02-16T05:29:43.377Z,1017.30
2023-02-16T05:30:43.567Z,1017.26
2023-02-16T05:31:43.791Z,1017.28
2023-02-16T05:32:43.855Z,1017.24
2023-02-16T05:33:44.017Z,1017.27
2023-02-16T05:34:44.170Z,1017.24
2023-02-16T05:35:44.346Z,1017.29
2023-02-16T05:36:44.488Z,1017.26
2023-02-16T05:37:44.648Z,1017.24
2023-02-16T05:38:44.840Z,1017.26
2023-02-16T05:39:45.041Z,1017.16
2023-02-16T05:40:45.151Z,1017.13
2023-02-16T05:41:45.202Z,1017.11
2023-02-16T05:42:45.347Z,1017.12
2023-02-16T05:43:46.659Z,1017.09
2023-02-16T05:44:45.592Z,1017.09
2023-02-16T05:45:45.764Z,1017.12
2023-02-16T05:46:45.905Z,1017.14
2023-02-16T05:47:47.275Z,1017.12
2023-02-16T05:48:46.145Z,1017.17
2023-02-16T05:49:46.222Z,1017.17
2023-02-16T05:50:46.392Z,1017.23
2023-02-16T05:51:46.551Z,1017.20
2023-02-16T05:52:46.737Z,1017.22
2023-02-16T05:53:46.921Z,1017.19
2023-02-16T05:54:46.959Z,1017.22
2023-02-16T05:55:47.129Z,1017.25
2023-02-16T05:56:47.313Z,1017.29
2023-02-16T05:57:47.478Z,1017.27
2023-02-16T05:58:47.659Z,1017.29
2023-02-16T05:59:47.725Z,1017.28
2023-02-16T06:00:47.879Z,1017.27
2023-02-16T06:01:51.629Z,1017.34
2023-02-16T06:02:48.211Z,1017.35
2023-02-16T06:03:48.426Z,1017.42
2023-02-16T06:04:48.432Z,1017.45
2023-02-16T06:05:48.594Z,1017.42
2023-02-16T06:06:48.757Z,1017.41
2023-02-16T06:07:48.950Z,1017.38
2023-02-16T06:08:49.044Z,1017.38
2023-02-16T06:09:49.087Z,1017.36
2023-02-16T06:10:49.230Z,1017.33
2023-02-16T06:11:49.382Z,1017.33
2023-02-16T06:12:49.495Z,1017.33
2023-02-16T06:13:49.558Z,1017.30
2023-02-16T06:14:49.722Z,1017.29
2023-02-16T06:15:49.925Z,1017.27
2023-02-16T06:16:50.040Z,1017.24
2023-02-16T06:17:50.182Z,1017.28
2023-02-16T06:18:50.357Z,1017.27
2023-02-16T06:19:50.511Z,1017.29
2023-02-16T06:20:50.662Z,1017.31
2023-02-16T06:21:50.813Z,1017.32
2023-02-16T06:22:50.962Z,1017.34
2023-02-16T06:23:51.112Z,1017.33
2023-02-16T06:24:51.253Z,1017.33
2023-02-16T06:25:51.407Z,1017.33
2023-02-16T06:26:51.546Z,1017.35
2023-02-16T06:27:51.696Z,1017.36
2023-02-16T06:28:51.855Z,1017.38
2023-02-16T06:29:52.074Z,1017.33
2023-02-16T06:30:52.117Z,1017.38
2023-02-16T06:31:52.413Z,1017.36
2023-02-16T06:32:52.360Z,1017.36
2023-02-16T06:33:52.529Z,1017.38
2023-02-16T06:34:52.680Z,1017.39
2023-02-16T06:35:52.837Z,1017.41
2023-02-16T06:36:53.009Z,1017.40
2023-02-16T06:37:53.135Z,1017.41
2023-02-16T06:38:53.406Z,1017.42
2023-02-16T06:39:53.484Z,1017.46
2023-02-16T06:40:53.514Z,1017.43
2023-02-16T06:41:53.668Z,1017.41
2023-02-16T06:42:53.800Z,1017.45
2023-02-16T06:43:54.004Z,1017.42
2023-02-16T06:44:54.057Z,1017.40
2023-02-16T06:45:54.215Z,1017.46
2023-02-16T06:46:54.413Z,1017.41
2023-02-16T06:47:54.537Z,1017.45
2023-02-16T06:48:54.597Z,1017.45
2023-02-16T06:49:54.763Z,1017.48
2023-02-16T06:50:54.830Z,1017.49
2023-02-16T06:51:54.984Z,1017.45
2023-02-16T06:52:55.130Z,1017.47
2023-02-16T06:53:55.310Z,1017.47
2023-02-16T06:54:55.465Z,1017.49
2023-02-16T06:55:55.620Z,1017.50
2023-02-16T06:56:55.768Z,1017.50
2023-02-16T06:57:55.915Z,1017.45
2023-02-16T06:58:56.078Z,1017.44
2023-02-16T06:59:56.250Z,1017.39
2023-02-16T07:00:56.501Z,1017.39
2023-02-16T07:01:56.535Z,1017.43
2023-02-16T07:02:56.745Z,1017.45
2023-02-16T07:03:56.804Z,1017.42
2023-02-16T07:04:56.948Z,1017.48
2023-02-16T07:05:57.108Z,1017.49
2023-02-16T07:06:57.256Z,1017.54
2023-02-16T07:07:57.406Z,1017.53
2023-02-16T07:08:57.568Z,1017.53
2023-02-16T07:09:57.726Z,1017.52
2023-02-16T07:10:57.866Z,1017.51
2023-02-16T07:11:58.025Z,1017.49
2023-02-16T07:12:58.218Z,1017.53
2023-02-16T07:13:58.376Z,1017.48
2023-02-16T07:14:58.416Z,1017.50
2023-02-16T07:15:58.623Z,1017.44
2023-02-16T07:16:58.630Z,1017.45
2023-02-16T07:17:58.784Z,1017.41
2023-02-16T07:18:58.929Z,1017.37
2023-02-16T07:20:00.093Z,1017.39
2023-02-16T07:20:59.144Z,1017.44
2023-02-16T07:21:59.410Z,1017.38
2023-02-16T07:22:59.345Z,1017.39
2023-02-16T07:23:59.491Z,1017.37
2023-02-16T07:24:59.598Z,1017.41
2023-02-16T07:25:59.726Z,1017.34
2023-02-16T07:26:59.837Z,1017.40
2023-02-16T07:27:59.938Z,1017.36
2023-02-16T07:29:00.049Z,1017.38
2023-02-16T07:30:00.208Z,1017.37
2023-02-16T07:31:00.283Z,1017.35
2023-02-16T07:32:00.662Z,1017.38
2023-02-16T07:33:00.554Z,1017.39
2023-02-16T07:34:00.759Z,1017.31
2023-02-16T07:35:00.826Z,1017.34
2023-02-16T07:36:00.912Z,1017.29
2023-02-16T07:37:00.969Z,1017.24
2023-02-16T07:38:01.041Z,1017.24
2023-02-16T07:39:01.108Z,1017.27
2023-02-16T07:40:01.176Z,1017.34
2023-02-16T07:41:01.201Z,1017.29
2023-02-16T07:42:01.348Z,1017.26
2023-02-16T07:43:01.501Z,1017.23
2023-02-16T07:44:01.551Z,1017.19
2023-02-16T07:45:01.618Z,1017.22
2023-02-16T07:46:01.707Z,1017.22
2023-02-16T07:47:01.718Z,1017.21
2023-02-16T07:48:01.737Z,1017.23
2023-02-16T07:49:01.984Z,1017.24
2023-02-16T07:50:01.971Z,1017.28
2023-02-16T07:51:02.409Z,1017.23
2023-02-16T07:52:02.215Z,1017.22
2023-02-16T07:53:02.372Z,1017.24
2023-02-16T07:54:02.416Z,1017.27
2023-02-16T07:55:02.452Z,1017.20
2023-02-16T07:56:02.582Z,1017.19
2023-02-16T07:57:02.705Z,1017.24
2023-02-16T07:58:02.834Z,1017.26
2023-02-16T07:59:02.985Z,1017.36
2023-02-16T08:00:03.012Z,1017.37
2023-02-16T08:01:03.349Z,1017.33
2023-02-16T08:02:03.329Z,1017.33
2023-02-16T08:03:03.345Z,1017.31
2023-02-16T08:04:03.380Z,1017.31
2023-02-16T08:05:03.500Z,1017.33
2023-02-16T08:06:03.580Z,1017.32
2023-02-16T08:07:03.677Z,1017.28
2023-02-16T08:08:03.794Z,1017.31
2023-02-16T08:09:03.906Z,1017.28
2023-02-16T08:10:04.039Z,1017.30
2023-02-16T08:11:04.343Z,1017.31
2023-02-16T08:12:04.175Z,1017.28
2023-02-16T08:13:04.268Z,1017.29
2023-02-16T08:14:04.367Z,1017.28
2023-02-16T08:15:04.484Z,1017.29
2023-02-16T08:16:04.983Z,1017.30
2023-02-16T08:17:04.723Z,1017.31
2023-02-16T08:18:04.666Z,1017.34
2023-02-16T08:19:04.777Z,1017.40
2023-02-16T08:20:04.828Z,1017.40
2023-02-16T08:21:04.905Z,1017.42
2023-02-16T08:22:04.976Z,1017.44
2023-02-16T08:23:05.041Z,1017.46
2023-02-16T08:24:05.260Z,1017.48
2023-02-16T08:25:06.908Z,1017.47
2023-02-16T08:26:05.546Z,1017.51
2023-02-16T08:27:05.260Z,1017.46
2023-02-16T08:28:05.312Z,1017.47
2023-02-16T08:29:05.401Z,1017.49
2023-02-16T08:30:05.500Z,1017.40
2023-02-16T08:31:05.628Z,1017.41
2023-02-16T08:32:05.589Z,1017.42
2023-02-16T08:33:05.632Z,1017.37
2023-02-16T08:34:05.705Z,1017.37
2023-02-16T08:35:05.778Z,1017.33
2023-02-16T08:36:06.110Z,1017.33
2023-02-16T08:37:05.944Z,1017.35
2023-02-16T08:38:06.000Z,1017.31
2023-02-16T08:39:06.099Z,1017.28
2023-02-16T08:40:06.122Z,1017.28
2023-02-16T08:41:06.182Z,1017.25
2023-02-16T08:42:06.212Z,1017.23
2023-02-16T08:43:06.260Z,1017.27
2023-02-16T08:44:06.312Z,1017.27
2023-02-16T08:45:06.356Z,1017.26
2023-02-16T08:46:06.792Z,1017.22
2023-02-16T08:47:06.468Z,1017.18
2023-02-16T08:48:06.487Z,1017.12
2023-02-16T08:49:06.530Z,1017.09
2023-02-16T08:50:16.594Z,1017.09
2023-02-16T08:51:06.562Z,1017.08
2023-02-16T08:52:06.640Z,1017.16
2023-02-16T08:53:06.600Z,1017.17
2023-02-16T08:54:06.666Z,1017.12
2023-02-16T08:55:06.717Z,1017.09
2023-02-16T08:56:07.072Z,1017.12
2023-02-16T08:57:06.743Z,1017.10
2023-02-16T08:58:06.764Z,1017.11
2023-02-16T08:59:06.834Z,1017.09
2023-02-16T09:00:06.839Z,1017.08
2023-02-16T09:01:06.855Z,1017.04
2023-02-16T09:02:06.938Z,1017.03
2023-02-16T09:03:06.932Z,1017.01
2023-02-16T09:04:06.931Z,1017.04
2023-02-16T09:05:06.956Z,1017.05
2023-02-16T09:06:07.154Z,1017.05
2023-02-16T09:07:06.968Z,1017.09
2023-02-16T09:08:06.977Z,1017.04
2023-02-16T09:09:07.007Z,1017.03
2023-02-16T09:10:07.009Z,1017.03
2023-02-16T09:11:07.061Z,1017.00
2023-02-16T09:12:07.066Z,1017.00
2023-02-16T09:13:07.079Z,1016.98
2023-02-16T09:14:07.088Z,1016.93
2023-02-16T09:15:07.120Z,1016.87
2023-02-16T09:16:07.107Z,1016.84
2023-02-16T09:17:07.163Z,1016.89
2023-02-16T09:18:07.083Z,1016.91
2023-02-16T09:19:07.106Z,1016.97
2023-02-16T09:20:07.098Z,1016.99
2023-02-16T09:21:07.093Z,1016.94
2023-02-16T09:22:07.096Z,1016.96
2023-02-16T09:23:07.142Z,1016.92
2023-02-16T09:24:07.153Z,1016.95
2023-02-16T09:25:07.143Z,1016.96
2023-02-16T09:26:07.140Z,1016.98
2023-02-16T09:27:07.144Z,1016.97
2023-02-16T09:28:07.152Z,1017.00
2023-02-16T09:29:07.162Z,1016.97
2023-02-16T09:30:07.244Z,1017.02
2023-02-16T09:31:07.236Z,1016.95
2023-02-16T09:32:07.145Z,1016.91
2023-02-16T09:33:07.146Z,1016.92
2023-02-16T09:34:07.133Z,1016.85
2023-02-16T09:35:07.135Z,1016.90
2023-02-16T09:36:07.132Z,1016.84
2023-02-16T09:37:07.135Z,1016.86
2023-02-16T09:38:07.102Z,1016.89
2023-02-16T09:39:07.093Z,1016.87
2023-02-16T09:40:07.081Z,1016.86
2023-02-16T09:41:07.061Z,1016.89
2023-02-16T09:42:07.022Z,1016.85
2023-02-16T09:43:07.012Z,1016.88
2023-02-16T09:44:06.997Z,1016.88
2023-02-16T09:45:07.001Z,1016.93
2023-02-16T09:46:07.336Z,1016.92
2023-02-16T09:47:06.920Z,1016.89
2023-02-16T09:48:06.913Z,1016.91
2023-02-16T09:49:06.882Z,1016.93
2023-02-16T09:50:06.853Z,1016.88
2023-02-16T09:51:06.855Z,1016.84
2023-02-16T09:52:06.824Z,1016.80
2023-02-16T09:53:06.803Z,1016.80
2023-02-16T09:54:06.782Z,1016.81
2023-02-16T09:55:06.755Z,1016.83
2023-02-16T09:56:06.991Z,1016.74
2023-02-16T09:57:06.761Z,1016.80
2023-02-16T09:58:06.743Z,1016.69
2023-02-16T09:59:06.837Z,1016.70
2023-02-16T10:00:06.689Z,1016.72
2023-02-16T10:01:06.677Z,1016.79
2023-02-16T10:02:06.685Z,1016.77
2023-02-16T10:03:06.664Z,1016.77
2023-02-16T10:04:06.652Z,1016.77
2023-02-16T10:05:06.640Z,1016.77
2023-02-16T10:06:06.715Z,1016.79
2023-02-16T10:07:06.586Z,1016.77
2023-02-16T10:08:06.553Z,1016.79
2023-02-16T10:09:06.540Z,1016.76
2023-02-16T10:10:06.543Z,1016.71
2023-02-16T10:11:06.749Z,1016.73
2023-02-16T10:12:06.480Z,1016.72
2023-02-16T10:13:06.495Z,1016.73
2023-02-16T10:14:06.479Z,1016.74
2023-02-16T10:15:06.447Z,1016.77
2023-02-16T10:16:06.472Z,1016.75
2023-02-16T10:17:06.331Z,1016.74
2023-02-16T10:18:06.321Z,1016.71
2023-02-16T10:19:06.301Z,1016.71
2023-02-16T10:20:06.272Z,1016.73
2023-02-16T10:21:06.452Z,1016.79
2023-02-16T10:22:06.224Z,1016.71
2023-02-16T10:23:06.191Z,1016.64
2023-02-16T10:24:06.151Z,1016.73
2023-02-16T10:25:06.127Z,1016.79
2023-02-16T10:26:06.098Z,1016.78
2023-02-16T10:27:06.085Z,1016.73
2023-02-16T10:28:06.068Z,1016.78
2023-02-16T10:29:06.051Z,1016.81
2023-02-16T10:30:06.065Z,1016.82
2023-02-16T10:31:06.566Z,1016.87
2023-02-16T10:32:06.123Z,1016.74
2023-02-16T10:33:06.037Z,1016.79
2023-02-16T10:34:06.015Z,1016.76
2023-02-16T10:35:06.020Z,1016.72
2023-02-16T10:36:06.017Z,1016.66
2023-02-16T10:37:06.016Z,1016.70
2023-02-16T10:38:06.001Z,1016.72
2023-02-16T10:39:05.978Z,1016.67
2023-02-16T10:40:05.992Z,1016.67
2023-02-16T10:41:06.223Z,1016.72
2023-02-16T10:42:05.997Z,1016.67
2023-02-16T10:43:06.021Z,1016.67
2023-02-16T10:44:05.945Z,1016.59
2023-02-16T10:45:05.924Z,1016.64
2023-02-16T10:46:05.955Z,1016.59
2023-02-16T10:47:05.986Z,1016.56
2023-02-16T10:48:05.865Z,1016.52
2023-02-16T10:49:05.860Z,1016.55
2023-02-16T10:50:05.831Z,1016.47
2023-02-16T10:51:06.236Z,1016.52
2023-02-16T10:52:05.741Z,1016.51
2023-02-16T10:53:05.731Z,1016.56
2023-02-16T10:54:05.726Z,1016.46
2023-02-16T10:55:05.695Z,1016.46
2023-02-16T10:56:05.662Z,1016.47
2023-02-16T10:57:05.702Z,1016.44
2023-02-16T10:58:05.650Z,1016.45
2023-02-16T10:59:05.650Z,1016.50
2023-02-16T11:00:05.630Z,1016.42
2023-02-16T11:01:05.931Z,1016.46
2023-02-16T11:02:05.615Z,1016.44
2023-02-16T11:03:05.612Z,1016.32
2023-02-16T11:04:05.657Z,1016.37
2023-02-16T11:05:05.575Z,1016.37
2023-02-16T11:06:05.876Z,1016.37
2023-02-16T11:07:05.585Z,1016.32
2023-02-16T11:08:05.578Z,1016.34
2023-02-16T11:09:05.571Z,1016.41
2023-02-16T11:10:05.562Z,1016.37
2023-02-16T11:11:05.809Z,1016.33
2023-02-16T11:12:05.514Z,1016.38
2023-02-16T11:13:05.513Z,1016.32
2023-02-16T11:14:06.899Z,1016.33
2023-02-16T11:15:05.449Z,1016.34
2023-02-16T11:16:05.473Z,1016.29
2023-02-16T11:17:05.385Z,1016.26
2023-02-16T11:18:05.361Z,1016.30
2023-02-16T11:19:05.352Z,1016.33
2023-02-16T11:20:05.330Z,1016.29
2023-02-16T11:21:05.620Z,1016.29
2023-02-16T11:22:05.290Z,1016.33
2023-02-16T11:23:05.283Z,1016.29
2023-02-16T11:24:05.285Z,1016.35
2023-02-16T11:25:05.260Z,1016.35
2023-02-16T11:26:05.245Z,1016.38
2023-02-16T11:27:05.264Z,1016.32
2023-02-16T11:28:05.255Z,1016.33
2023-02-16T11:29:05.241Z,1016.34
2023-02-16T11:30:05.265Z,1016.28
2023-02-16T11:31:05.614Z,1016.23
2023-02-16T11:32:05.217Z,1016.23
2023-02-16T11:33:05.187Z,1016.24
2023-02-16T11:34:06.255Z,1016.25
2023-02-16T11:35:05.195Z,1016.26
2023-02-16T11:36:05.195Z,1016.22
2023-02-16T11:37:05.192Z,1016.18
2023-02-16T11:38:05.168Z,1016.20
2023-02-16T11:39:05.161Z,1016.20
2023-02-16T11:40:05.149Z,1016.12
2023-02-16T11:41:05.524Z,1016.17
2023-02-16T11:42:05.132Z,1016.13
2023-02-16T11:43:05.112Z,1016.12
2023-02-16T11:44:05.086Z,1016.09
2023-02-16T11:45:05.069Z,1016.08
2023-02-16T11:46:05.334Z,1016.12
2023-02-16T11:47:05.010Z,1016.09
2023-02-16T11:48:04.992Z,1016.08
2023-02-16T11:49:04.983Z,1016.16
2023-02-16T11:50:04.970Z,1016.06
2023-02-16T11:51:05.234Z,1016.03
2023-02-16T11:52:04.879Z,1016.06
2023-02-16T11:53:04.859Z,1016.03
2023-02-16T11:54:04.849Z,1015.94
2023-02-16T11:55:04.828Z,1015.91
2023-02-16T11:56:05.086Z,1015.96
2023-02-16T11:57:04.758Z,1015.99
2023-02-16T11:58:04.729Z,1015.89
2023-02-16T11:59:04.700Z,1015.90
2023-02-16T12:00:04.696Z,1015.88
2023-02-16T12:01:05.066Z,1015.85
2023-02-16T12:02:04.630Z,1015.92
2023-02-16T12:03:04.590Z,1015.94
2023-02-16T12:04:04.612Z,1015.92
2023-02-16T12:05:04.512Z,1015.90
2023-02-16T12:06:04.496Z,1015.87